createdAt,value
2019-03-26T00:00:23.277Z,89.70
2019-03-26T00:02:54.289Z,89.60
2019-03-26T00:05:25.314Z,89.50
2019-03-26T00:07:56.357Z,89.60
2019-03-26T00:10:27.421Z,89.90
2019-03-26T00:12:58.491Z,89.80
2019-03-26T00:15:29.455Z,90.10
2019-03-26T00:18:00.443Z,90.30
2019-03-26T00:20:31.519Z,90.10
2019-03-26T00:23:02.559Z,90.00
2019-03-26T00:25:33.570Z,90.10
2019-03-26T00:28:05.670Z,89.50
2019-03-26T00:30:36.638Z,89.70
2019-03-26T00:33:07.659Z,89.80
2019-03-26T00:35:38.672Z,89.60
2019-03-26T00:38:09.754Z,89.80
2019-03-26T00:40:40.691Z,90.10
2019-03-26T00:43:11.702Z,90.10
2019-03-26T00:45:42.780Z,90.10
2019-03-26T00:48:13.799Z,90.50
2019-03-26T00:50:44.883Z,90.40
2019-03-26T00:53:15.857Z,90.40
2019-03-26T00:55:47.320Z,90.20
2019-03-26T00:58:18.832Z,90.40
2019-03-26T01:00:49.876Z,90.80
2019-03-26T01:03:20.892Z,91.00
2019-03-26T01:05:52.316Z,91.10
2019-03-26T01:08:23.403Z,91.00
2019-03-26T01:10:54.682Z,91.10
2019-03-26T01:13:25.779Z,91.20
2019-03-26T01:15:56.762Z,91.00
2019-03-26T01:18:27.833Z,91.00
2019-03-26T01:20:58.830Z,91.40
2019-03-26T01:23:29.866Z,91.50
2019-03-26T01:26:00.860Z,91.90
2019-03-26T01:28:31.944Z,92.10
2019-03-26T01:31:03.258Z,92.30
2019-03-26T01:33:34.393Z,92.60
2019-03-26T01:36:05.503Z,92.30
2019-03-26T01:38:36.540Z,92.20
2019-03-26T01:41:07.647Z,92.60
2019-03-26T01:43:38.793Z,92.60
2019-03-26T01:46:09.803Z,93.10
2019-03-26T01:48:41.193Z,93.30
2019-03-26T01:51:12.179Z,93.50
2019-03-26T01:53:43.176Z,93.50
2019-03-26T01:56:14.240Z,93.70
2019-03-26T01:58:45.317Z,93.60
2019-03-26T02:01:16.423Z,93.90
2019-03-26T02:03:47.462Z,94.10
2019-03-26T02:06:18.545Z,94.10
2019-03-26T02:08:49.573Z,94.10
2019-03-26T02:11:20.535Z,94.10
2019-03-26T02:13:51.544Z,94.00
2019-03-26T02:16:22.645Z,94.20
2019-03-26T02:18:54.657Z,94.10
2019-03-26T02:21:25.766Z,94.10
2019-03-26T02:23:56.844Z,94.20
2019-03-26T02:26:28.011Z,94.20
2019-03-26T02:28:59.176Z,94.20
2019-03-26T02:31:30.217Z,94.10
2019-03-26T02:34:01.335Z,94.20
2019-03-26T02:36:32.563Z,94.30
2019-03-26T02:39:05.185Z,94.40
2019-03-26T02:41:38.128Z,94.50
2019-03-26T02:44:09.216Z,94.40
2019-03-26T02:46:40.288Z,94.40
2019-03-26T02:49:11.289Z,94.30
2019-03-26T02:51:42.262Z,94.60
2019-03-26T02:54:13.278Z,94.40
2019-03-26T02:56:44.335Z,94.40
2019-03-26T02:59:15.590Z,94.30
2019-03-26T03:01:46.632Z,94.30
2019-03-26T03:04:17.651Z,94.30
2019-03-26T03:06:48.685Z,94.30
2019-03-26T03:09:20.021Z,94.60
2019-03-26T03:11:51.125Z,94.30
2019-03-26T03:14:22.202Z,94.30
2019-03-26T03:16:53.322Z,94.50
2019-03-26T03:19:24.314Z,94.50
2019-03-26T03:21:55.374Z,94.60
2019-03-26T03:24:26.352Z,94.20
2019-03-26T03:26:57.329Z,94.20
2019-03-26T03:29:29.538Z,94.30
2019-03-26T03:32:00.558Z,94.30
2019-03-26T03:34:31.919Z,94.30
2019-03-26T03:37:02.976Z,94.40
2019-03-26T03:39:34.063Z,94.30
2019-03-26T03:42:05.206Z,94.30
2019-03-26T03:44:36.358Z,94.20
2019-03-26T03:47:07.821Z,94.40
2019-03-26T03:49:39.155Z,94.30
2019-03-26T03:52:12.019Z,94.10
2019-03-26T03:54:44.865Z,94.30
2019-03-26T03:57:17.999Z,94.20
2019-03-26T03:59:49.196Z,94.00
2019-03-26T04:02:20.258Z,94.10
2019-03-26T04:04:51.345Z,94.00
2019-03-26T04:07:22.400Z,94.10
2019-03-26T04:09:53.403Z,93.80
2019-03-26T04:12:24.354Z,93.70
2019-03-26T04:14:55.434Z,93.70
2019-03-26T04:17:26.466Z,93.70
2019-03-26T04:19:57.436Z,93.70
2019-03-26T04:22:28.407Z,93.70
2019-03-26T04:24:59.449Z,93.40
2019-03-26T04:27:30.451Z,93.70
2019-03-26T04:30:01.470Z,93.50
2019-03-26T04:32:32.525Z,93.50
2019-03-26T04:35:03.511Z,93.50
2019-03-26T04:37:34.580Z,93.50
2019-03-26T04:40:05.761Z,93.60
2019-03-26T04:42:36.831Z,93.60
2019-03-26T04:45:08.026Z,93.50
2019-03-26T04:47:39.025Z,93.80
2019-03-26T04:50:10.049Z,93.80
2019-03-26T04:52:41.133Z,93.50
2019-03-26T04:55:12.154Z,93.40
2019-03-26T04:57:43.150Z,93.40
2019-03-26T05:00:14.659Z,93.20
2019-03-26T05:02:45.745Z,92.90
2019-03-26T05:05:16.985Z,92.80
2019-03-26T05:07:48.091Z,93.30
2019-03-26T05:10:19.234Z,93.30
2019-03-26T05:12:50.229Z,93.10
2019-03-26T05:15:21.298Z,93.20
2019-03-26T05:17:52.366Z,93.20
2019-03-26T05:20:24.968Z,93.00
2019-03-26T05:22:56.037Z,92.50
2019-03-26T05:25:26.992Z,92.20
2019-03-26T05:27:57.964Z,92.20
2019-03-26T05:30:28.923Z,92.30
2019-03-26T05:32:59.927Z,92.30
2019-03-26T05:35:30.888Z,92.00
2019-03-26T05:38:01.904Z,92.40
2019-03-26T05:40:32.936Z,92.20
2019-03-26T05:43:04.066Z,92.20
2019-03-26T05:45:35.013Z,92.20
2019-03-26T05:48:06.038Z,92.00
2019-03-26T05:50:37.082Z,92.00
2019-03-26T05:53:08.187Z,91.90
2019-03-26T05:55:39.232Z,91.80
2019-03-26T05:58:10.246Z,91.80
2019-03-26T06:00:41.400Z,91.70
2019-03-26T06:03:12.424Z,91.80
2019-03-26T06:05:43.672Z,91.80
2019-03-26T06:08:14.717Z,92.00
2019-03-26T06:10:45.825Z,91.80
2019-03-26T06:13:16.833Z,91.50
2019-03-26T06:15:47.908Z,91.40
2019-03-26T06:18:18.948Z,91.60
2019-03-26T06:20:50.062Z,91.30
2019-03-26T06:23:21.096Z,91.50
2019-03-26T06:25:52.140Z,91.60
2019-03-26T06:28:23.171Z,91.30
2019-03-26T06:30:54.213Z,91.40
2019-03-26T06:33:25.180Z,91.20
2019-03-26T06:35:56.169Z,91.00
2019-03-26T06:38:27.269Z,90.80
2019-03-26T06:40:58.372Z,90.70
2019-03-26T06:43:29.513Z,90.70
2019-03-26T06:46:00.513Z,90.30
2019-03-26T06:48:32.559Z,90.20
2019-03-26T06:51:03.553Z,90.20
2019-03-26T06:53:34.617Z,90.00
2019-03-26T06:56:05.702Z,89.50
2019-03-26T06:58:37.018Z,89.30
2019-03-26T07:01:08.246Z,89.80
2019-03-26T07:03:39.326Z,89.20
2019-03-26T07:06:11.288Z,89.00
2019-03-26T07:08:42.363Z,88.80
2019-03-26T07:11:13.373Z,88.10
2019-03-26T07:13:44.496Z,87.80
2019-03-26T07:16:15.731Z,86.80
2019-03-26T07:18:46.715Z,87.10
2019-03-26T07:21:17.716Z,85.80
2019-03-26T07:23:48.754Z,83.10
2019-03-26T07:26:19.734Z,82.40
2019-03-26T07:28:50.753Z,80.50
2019-03-26T07:31:21.805Z,78.90
2019-03-26T07:33:52.804Z,77.90
2019-03-26T07:36:23.761Z,76.60
2019-03-26T07:38:54.845Z,75.80
2019-03-26T07:41:26.878Z,75.20
2019-03-26T07:43:57.982Z,75.10
2019-03-26T07:46:29.051Z,77.60
2019-03-26T07:49:00.077Z,77.60
2019-03-26T07:51:31.134Z,79.60
2019-03-26T07:54:02.309Z,79.10
2019-03-26T07:56:33.289Z,79.00
2019-03-26T07:59:04.327Z,76.30
2019-03-26T08:01:35.373Z,73.00
2019-03-26T08:04:07.466Z,71.90
2019-03-26T08:06:38.873Z,69.20
2019-03-26T08:09:09.873Z,71.70
2019-03-26T08:11:40.786Z,69.00
2019-03-26T08:14:11.783Z,66.20
2019-03-26T08:16:42.740Z,66.50
2019-03-26T08:19:14.072Z,66.70
2019-03-26T08:21:45.378Z,65.30
2019-03-26T08:24:16.448Z,66.20
2019-03-26T08:26:47.432Z,67.80
2019-03-26T08:29:18.389Z,69.60
2019-03-26T08:31:49.369Z,69.00
2019-03-26T08:34:20.318Z,69.40
2019-03-26T08:36:51.330Z,71.50
2019-03-26T08:39:22.368Z,71.00
2019-03-26T08:41:53.451Z,71.30
2019-03-26T08:44:24.625Z,69.50
2019-03-26T08:46:55.705Z,66.20
2019-03-26T08:49:30.549Z,61.50
2019-03-26T08:51:59.567Z,58.60
2019-03-26T08:54:32.072Z,58.00
2019-03-26T08:57:03.066Z,55.40
2019-03-26T08:59:34.060Z,55.00
2019-03-26T09:02:05.195Z,53.30
2019-03-26T09:04:37.191Z,53.80
2019-03-26T09:07:10.954Z,51.10
2019-03-26T09:09:40.919Z,51.80
2019-03-26T09:12:12.013Z,52.20
2019-03-26T09:14:43.047Z,51.20
2019-03-26T09:17:14.077Z,52.00
2019-03-26T09:19:45.009Z,52.00
2019-03-26T09:22:15.954Z,52.60
2019-03-26T09:24:46.961Z,53.10
2019-03-26T09:27:17.898Z,53.10
2019-03-26T09:29:48.924Z,53.80
2019-03-26T09:32:19.867Z,55.80
2019-03-26T09:34:50.920Z,57.50
2019-03-26T09:37:21.883Z,57.80
2019-03-26T09:39:52.873Z,58.00
2019-03-26T09:42:23.874Z,57.20
2019-03-26T09:44:56.643Z,57.80
2019-03-26T09:47:27.751Z,59.10
2019-03-26T09:49:58.878Z,58.30
2019-03-26T09:52:29.945Z,55.70
2019-03-26T09:55:00.885Z,55.50
2019-03-26T09:57:32.058Z,55.20
2019-03-26T10:00:03.084Z,56.80
2019-03-26T10:02:34.187Z,59.00
2019-03-26T10:05:05.472Z,59.00
2019-03-26T10:07:36.475Z,57.70
2019-03-26T10:10:08.379Z,58.50
2019-03-26T10:12:39.437Z,60.50
2019-03-26T10:15:10.509Z,61.60
2019-03-26T10:17:41.933Z,63.20
2019-03-26T10:20:14.068Z,63.80
2019-03-26T10:22:45.153Z,64.20
2019-03-26T10:25:16.599Z,65.20
2019-03-26T10:27:47.903Z,64.20
2019-03-26T10:30:24.929Z,63.90
2019-03-26T10:32:56.146Z,64.60
2019-03-26T10:35:27.235Z,63.00
2019-03-26T10:37:58.242Z,61.90
2019-03-26T10:40:33.170Z,59.80
2019-03-26T10:43:04.566Z,61.00
2019-03-26T10:45:36.105Z,59.70
2019-03-26T10:48:07.219Z,59.40
2019-03-26T10:50:38.251Z,58.70
2019-03-26T10:53:09.350Z,58.80
2019-03-26T10:55:40.427Z,59.90
2019-03-26T10:58:11.515Z,60.40
2019-03-26T11:00:42.494Z,60.80
2019-03-26T11:03:13.515Z,61.90
2019-03-26T11:05:44.597Z,61.50
2019-03-26T11:08:15.807Z,60.70
2019-03-26T11:10:46.859Z,62.30
2019-03-26T11:13:17.881Z,61.90
2019-03-26T11:15:49.092Z,59.50
2019-03-26T11:18:20.283Z,59.70
2019-03-26T11:21:02.299Z,58.60
2019-03-26T11:23:25.458Z,58.60
2019-03-26T11:25:56.542Z,59.80
2019-03-26T11:28:27.649Z,61.40
2019-03-26T11:30:58.842Z,62.40
2019-03-26T11:33:30.025Z,63.00
2019-03-26T11:36:01.230Z,63.50
2019-03-26T11:38:32.576Z,64.20
2019-03-26T11:41:03.669Z,65.10
2019-03-26T11:43:35.035Z,64.10
2019-03-26T11:46:05.960Z,61.50
2019-03-26T11:48:37.845Z,61.20
2019-03-26T11:51:08.986Z,62.60
2019-03-26T11:53:40.027Z,62.30
2019-03-26T11:56:10.980Z,61.50
2019-03-26T11:58:42.022Z,59.20
2019-03-26T12:01:13.004Z,59.40
2019-03-26T12:03:44.132Z,56.00
2019-03-26T12:06:15.256Z,57.00
2019-03-26T12:08:46.398Z,57.60
2019-03-26T12:11:17.434Z,59.70
2019-03-26T12:13:48.557Z,58.70
2019-03-26T12:16:20.642Z,58.00
2019-03-26T12:18:51.682Z,58.20
2019-03-26T12:21:23.060Z,60.00
2019-03-26T12:23:54.148Z,60.70
2019-03-26T12:26:25.194Z,59.40
2019-03-26T12:28:56.221Z,58.70
2019-03-26T12:31:29.670Z,57.30
2019-03-26T12:34:01.053Z,57.30
2019-03-26T12:36:39.737Z,56.70
2019-03-26T12:39:06.603Z,57.70
2019-03-26T12:41:38.591Z,57.30
2019-03-26T12:44:09.743Z,57.30
2019-03-26T12:46:40.753Z,56.40
2019-03-26T12:49:11.868Z,57.80
2019-03-26T12:51:43.111Z,57.60
2019-03-26T12:54:14.256Z,57.70
2019-03-26T12:56:45.501Z,58.10
2019-03-26T12:59:16.590Z,57.90
2019-03-26T13:01:47.834Z,58.30
2019-03-26T13:04:18.794Z,57.50
2019-03-26T13:06:50.269Z,57.40
2019-03-26T13:09:21.291Z,57.50
2019-03-26T13:11:52.361Z,56.60
2019-03-26T13:14:23.385Z,57.10
2019-03-26T13:16:54.550Z,56.10
2019-03-26T13:19:25.583Z,56.50
2019-03-26T13:21:56.645Z,57.40
2019-03-26T13:24:27.606Z,57.80
2019-03-26T13:26:58.806Z,56.70
2019-03-26T13:29:29.775Z,55.90
2019-03-26T13:32:00.809Z,55.60
2019-03-26T13:34:31.782Z,56.20
2019-03-26T13:37:02.798Z,56.90
2019-03-26T13:39:33.936Z,56.20
2019-03-26T13:42:04.999Z,55.50
2019-03-26T13:44:36.176Z,56.30
2019-03-26T13:47:07.240Z,57.50
2019-03-26T13:49:38.200Z,57.20
2019-03-26T13:52:09.207Z,57.70
2019-03-26T13:54:40.136Z,57.70
2019-03-26T13:57:11.294Z,57.50
2019-03-26T13:59:42.387Z,58.50
2019-03-26T14:02:13.532Z,58.10
2019-03-26T14:04:44.548Z,58.70
2019-03-26T14:07:15.572Z,56.50
2019-03-26T14:09:46.582Z,56.90
2019-03-26T14:12:17.642Z,57.50
2019-03-26T14:14:48.650Z,56.60
2019-03-26T14:17:19.676Z,55.10
2019-03-26T14:19:50.744Z,55.80
2019-03-26T14:22:21.894Z,55.60
2019-03-26T14:24:52.859Z,55.30
2019-03-26T14:27:23.877Z,53.30
2019-03-26T14:29:54.889Z,53.40
2019-03-26T14:32:25.946Z,52.90
2019-03-26T14:34:56.951Z,52.50
2019-03-26T14:37:28.030Z,52.60
2019-03-26T14:39:59.014Z,52.20
2019-03-26T14:42:29.989Z,51.80
2019-03-26T14:45:01.054Z,50.90
2019-03-26T14:47:32.144Z,51.90
2019-03-26T14:50:03.320Z,52.30
2019-03-26T14:52:34.393Z,51.70
2019-03-26T14:55:05.972Z,51.80
2019-03-26T14:57:37.137Z,51.80
2019-03-26T15:00:09.159Z,52.10
2019-03-26T15:02:41.792Z,52.30
2019-03-26T15:05:13.083Z,52.90
2019-03-26T15:07:44.157Z,52.60
2019-03-26T15:10:15.403Z,52.30
2019-03-26T15:12:46.422Z,52.70
2019-03-26T15:15:17.620Z,52.70
2019-03-26T15:17:48.703Z,53.10
2019-03-26T15:20:19.795Z,53.60
2019-03-26T15:22:50.865Z,53.40
2019-03-26T15:25:22.148Z,54.30
2019-03-26T15:27:53.116Z,53.20
2019-03-26T15:30:25.028Z,52.90
2019-03-26T15:32:56.032Z,54.20
2019-03-26T15:35:27.014Z,57.50
2019-03-26T15:37:58.117Z,59.60
2019-03-26T15:40:30.049Z,61.10
2019-03-26T15:43:01.102Z,62.30
2019-03-26T15:45:32.157Z,63.50
2019-03-26T15:48:03.252Z,64.10
2019-03-26T15:50:47.167Z,64.80
2019-03-26T15:53:18.209Z,65.00
2019-03-26T15:55:49.438Z,64.60
2019-03-26T15:58:20.553Z,63.80
2019-03-26T16:00:51.645Z,64.20
2019-03-26T16:03:22.955Z,63.70
2019-03-26T16:05:54.915Z,63.20
2019-03-26T16:08:25.903Z,63.70
2019-03-26T16:10:56.898Z,63.30
2019-03-26T16:13:28.913Z,63.00
2019-03-26T16:16:00.029Z,63.20
2019-03-26T16:18:31.062Z,63.00
2019-03-26T16:21:02.147Z,62.50
2019-03-26T16:23:33.288Z,62.00
2019-03-26T16:26:04.301Z,62.20
2019-03-26T16:28:35.436Z,60.50
2019-03-26T16:31:06.493Z,59.30
2019-03-26T16:33:37.492Z,58.80
2019-03-26T16:36:08.682Z,58.80
2019-03-26T16:38:39.788Z,59.00
2019-03-26T16:41:10.947Z,58.60
2019-03-26T16:43:42.040Z,58.40
2019-03-26T16:46:13.036Z,58.90
2019-03-26T16:48:44.127Z,59.50
2019-03-26T16:51:16.136Z,59.70
2019-03-26T16:53:47.156Z,59.50
2019-03-26T16:56:18.202Z,59.60
2019-03-26T16:58:49.395Z,60.10
2019-03-26T17:01:20.474Z,60.40
2019-03-26T17:03:51.580Z,60.00
2019-03-26T17:06:22.555Z,59.60
2019-03-26T17:08:53.713Z,59.50
2019-03-26T17:11:24.683Z,59.30
2019-03-26T17:13:55.855Z,59.90
2019-03-26T17:16:27.066Z,60.20
2019-03-26T17:18:58.221Z,60.30
2019-03-26T17:21:29.335Z,60.50
2019-03-26T17:24:00.453Z,61.60
2019-03-26T17:26:31.629Z,60.60
2019-03-26T17:29:02.841Z,60.40
2019-03-26T17:31:33.999Z,60.50
2019-03-26T17:34:05.179Z,60.20
2019-03-26T17:36:36.263Z,60.30
2019-03-26T17:39:09.250Z,60.30
2019-03-26T17:41:40.397Z,60.00
2019-03-26T17:44:11.475Z,60.30
2019-03-26T17:46:42.541Z,60.30
2019-03-26T17:49:13.654Z,60.90
2019-03-26T17:51:44.720Z,61.00
2019-03-26T17:54:15.819Z,61.60
2019-03-26T17:56:47.477Z,61.90
2019-03-26T17:59:18.634Z,62.30
2019-03-26T18:01:49.672Z,62.30
2019-03-26T18:04:20.873Z,62.40
2019-03-26T18:06:51.839Z,62.40
2019-03-26T18:09:22.900Z,62.50
2019-03-26T18:11:53.997Z,62.70
2019-03-26T18:14:25.068Z,62.90
2019-03-26T18:16:56.171Z,62.70
2019-03-26T18:19:27.158Z,62.70
2019-03-26T18:21:58.952Z,62.60
2019-03-26T18:24:30.032Z,63.10
2019-03-26T18:27:01.057Z,63.60
2019-03-26T18:29:32.113Z,63.60
2019-03-26T18:32:03.209Z,63.30
2019-03-26T18:34:34.291Z,64.00
2019-03-26T18:37:05.704Z,63.80
2019-03-26T18:39:36.917Z,63.90
2019-03-26T18:42:08.124Z,64.30
2019-03-26T18:44:39.290Z,64.00
2019-03-26T18:47:10.381Z,64.40
2019-03-26T18:49:41.621Z,63.90
2019-03-26T18:52:12.767Z,63.80
2019-03-26T18:54:44.213Z,64.00
2019-03-26T18:57:15.409Z,63.60
2019-03-26T18:59:46.501Z,63.30
2019-03-26T19:02:18.642Z,63.00
2019-03-26T19:04:49.749Z,63.10
2019-03-26T19:07:20.861Z,63.70
2019-03-26T19:09:51.992Z,64.50
2019-03-26T19:12:23.305Z,64.70
2019-03-26T19:14:54.492Z,65.00
2019-03-26T19:17:25.664Z,66.00
2019-03-26T19:19:58.379Z,66.10
2019-03-26T19:22:30.528Z,65.20
2019-03-26T19:25:01.757Z,65.20
2019-03-26T19:27:32.952Z,64.60
2019-03-26T19:30:04.231Z,64.90
2019-03-26T19:32:35.373Z,64.70
2019-03-26T19:35:06.716Z,65.00
2019-03-26T19:37:37.916Z,65.80
2019-03-26T19:40:09.246Z,66.20
2019-03-26T19:42:40.361Z,66.40
2019-03-26T19:45:11.828Z,66.70
2019-03-26T19:47:43.528Z,66.70
2019-03-26T19:50:15.544Z,66.90
2019-03-26T19:52:46.774Z,66.60
2019-03-26T19:55:17.898Z,67.10
2019-03-26T19:57:49.060Z,67.20
2019-03-26T20:00:20.511Z,67.90
2019-03-26T20:02:51.585Z,68.50
2019-03-26T20:05:22.712Z,72.30
2019-03-26T20:07:53.803Z,74.30
2019-03-26T20:10:24.878Z,76.10
2019-03-26T20:12:56.061Z,77.50
2019-03-26T20:15:27.343Z,78.10
2019-03-26T20:17:58.395Z,78.10
2019-03-26T20:20:29.423Z,79.20
2019-03-26T20:23:00.423Z,80.70
2019-03-26T20:25:31.537Z,81.40
2019-03-26T20:28:02.566Z,81.70
2019-03-26T20:30:33.663Z,82.40
2019-03-26T20:33:04.662Z,83.20
2019-03-26T20:35:35.810Z,83.70
2019-03-26T20:38:06.830Z,83.70
2019-03-26T20:40:37.999Z,84.20
2019-03-26T20:43:09.183Z,84.00
2019-03-26T20:45:40.434Z,84.60
2019-03-26T20:48:11.568Z,85.10
2019-03-26T20:50:43.237Z,85.10
2019-03-26T20:53:14.279Z,84.70
2019-03-26T20:55:54.359Z,83.90
2019-03-26T20:58:18.249Z,83.90
2019-03-26T21:00:49.446Z,83.90
2019-03-26T21:03:20.637Z,83.80
2019-03-26T21:05:51.838Z,83.60
2019-03-26T21:08:23.942Z,83.50
2019-03-26T21:10:56.127Z,83.30
2019-03-26T21:13:27.286Z,82.90
2019-03-26T21:15:58.629Z,83.70
2019-03-26T21:18:29.714Z,84.00
2019-03-26T21:21:00.830Z,84.50
2019-03-26T21:23:32.035Z,84.60
2019-03-26T21:26:03.226Z,84.50
2019-03-26T21:28:34.299Z,85.50
2019-03-26T21:31:05.461Z,84.80
2019-03-26T21:33:36.571Z,84.70
2019-03-26T21:36:09.759Z,84.80
2019-03-26T21:38:42.627Z,85.00
2019-03-26T21:41:13.763Z,84.80
2019-03-26T21:43:44.894Z,84.80
2019-03-26T21:46:16.036Z,84.20
2019-03-26T21:48:47.060Z,84.60
2019-03-26T21:51:18.152Z,85.00
2019-03-26T21:53:49.218Z,84.70
2019-03-26T21:56:21.034Z,84.60
2019-03-26T21:58:52.203Z,84.70
2019-03-26T22:01:23.327Z,84.70
2019-03-26T22:03:54.760Z,84.70
2019-03-26T22:06:26.057Z,84.60
2019-03-26T22:08:57.513Z,84.70
2019-03-26T22:11:28.768Z,84.20
2019-03-26T22:14:02.629Z,83.40
2019-03-26T22:16:33.818Z,82.60
2019-03-26T22:19:04.949Z,82.40
2019-03-26T22:21:36.161Z,81.90
2019-03-26T22:24:07.278Z,81.30
2019-03-26T22:26:38.540Z,81.30
2019-03-26T22:29:09.647Z,80.70
2019-03-26T22:31:40.773Z,80.60
2019-03-26T22:34:11.955Z,80.40
2019-03-26T22:36:43.205Z,80.20
2019-03-26T22:39:14.399Z,79.50
2019-03-26T22:41:45.381Z,79.90
2019-03-26T22:44:16.436Z,80.00
2019-03-26T22:46:47.454Z,79.40
2019-03-26T22:49:18.518Z,79.60
2019-03-26T22:51:50.068Z,78.50
2019-03-26T22:54:21.022Z,79.20
2019-03-26T22:56:53.004Z,79.50
2019-03-26T22:59:24.938Z,79.60
2019-03-26T23:01:56.107Z,79.80
2019-03-26T23:04:27.063Z,79.20
2019-03-26T23:06:58.295Z,78.80
2019-03-26T23:09:29.282Z,79.30
2019-03-26T23:12:00.313Z,79.80
2019-03-26T23:14:43.976Z,80.70
2019-03-26T23:17:04.171Z,80.10
2019-03-26T23:19:35.160Z,80.20
2019-03-26T23:22:06.209Z,80.10
2019-03-26T23:24:37.257Z,80.10
2019-03-26T23:27:08.375Z,80.50
2019-03-26T23:29:39.531Z,80.70
2019-03-26T23:32:10.668Z,80.60
2019-03-26T23:34:41.748Z,80.10
2019-03-26T23:37:12.883Z,80.30
2019-03-26T23:39:44.021Z,80.40
2019-03-26T23:42:15.091Z,80.30
2019-03-26T23:44:57.851Z,80.80
2019-03-26T23:47:18.866Z,80.80
2019-03-26T23:49:49.850Z,81.30
2019-03-26T23:52:20.998Z,81.60
2019-03-26T23:54:52.016Z,81.40
2019-03-26T23:57:23.108Z,81.40
2019-03-26T23:59:54.124Z,80.80
